Terminal Aerodrome Forecast
Issued by NWS Wakefield, VA

Home | Current Version | Previous Version | Text Only | Print | Product List | Glossary On
Versions: 1 2 3 4 5 6 7 8 9 10 11 12 13 14 15 16 17 18
333
FTUS41 KAKQ 110520
TAFECG
TAF
KECG 110520Z 1106/1206 VRB03KT P6SM BKN250
     FM111400 12006KT P6SM SCT250
     FM120000 15005KT P6SM BKN100=

USA.gov is the U.S. government's official web portal to all federal, state and local government web resources and services.